Time;durP1;ratioP1;P1;durP2;ratioP2;P2;SDS_P1;SDS_P2;PMS_P1;PMS_P2;Temp;Humidity;BMP_temperature;BMP_pressure;BME280_temperature;BME280_humidity;BME280_pressure;Samples;Min_cycle;Max_cycle;Signal;HPM_P1;HPM_P2
2022/05/09 00:01:13;;;;;;;7.10;6.05;;;14.60;99.90;;;;;;5095175;28;20054;-65
2022/05/09 00:03:40;;;;;;;9.07;5.53;;;14.50;99.90;;;;;;5076405;28;20024;-65
2022/05/09 00:06:05;;;;;;;7.65;5.38;;;14.50;99.90;;;;;;5094895;28;20032;-65
2022/05/09 00:08:31;;;;;;;7.77;6.00;;;14.50;99.90;;;;;;5094627;28;20024;-65
2022/05/09 00:10:56;;;;;;;7.75;5.57;;;14.40;99.90;;;;;;5094781;28;20311;-64
2022/05/09 00:13:22;;;;;;;6.93;5.93;;;14.40;99.90;;;;;;5094348;28;20035;-65
2022/05/09 00:15:48;;;;;;;7.00;6.07;;;14.40;99.90;;;;;;5094608;28;20526;-65
2022/05/09 00:18:13;;;;;;;8.63;6.43;;;14.30;99.90;;;;;;5094364;28;20258;-65
2022/05/09 00:20:40;;;;;;;9.50;5.87;;;14.30;99.90;;;;;;5094394;28;20254;-65
2022/05/09 00:23:06;;;;;;;9.57;7.13;;;14.30;99.90;;;;;;5094328;28;20024;-65
2022/05/09 00:25:31;;;;;;;10.40;6.43;;;14.20;99.90;;;;;;5094242;28;20024;-65
2022/05/09 00:27:57;;;;;;;8.30;6.77;;;14.20;99.90;;;;;;5094826;28;20451;-65
2022/05/09 00:30:23;;;;;;;9.60;6.13;;;14.10;99.90;;;;;;5094646;28;20290;-66
2022/05/09 00:32:49;;;;;;;9.15;6.78;;;14.10;99.90;;;;;;5094357;28;20424;-65
2022/05/09 00:35:15;;;;;;;12.93;6.78;;;14.10;99.90;;;;;;5094436;28;20485;-65
2022/05/09 00:37:41;;;;;;;;;;;14.10;99.90;;;;;;5095094;28;20469;-65
2022/05/09 00:40:08;;;;;;;9.45;6.65;;;14.00;99.90;;;;;;5075773;28;19904;-65
2022/05/09 00:42:34;;;;;;;10.93;7.43;;;14.00;99.90;;;;;;5075634;28;20093;-64
2022/05/09 00:45:01;;;;;;;8.95;7.00;;;14.00;99.90;;;;;;5093378;28;20038;-65
2022/05/09 00:47:27;;;;;;;9.20;6.60;;;14.00;99.90;;;;;;5075497;28;20120;-65
2022/05/09 00:49:57;;;;;;;9.75;6.80;;;13.90;99.90;;;;;;5093845;28;20503;-64
2022/05/09 00:52:38;;;;;;;10.93;6.80;;;13.90;99.90;;;;;;5093736;28;20031;-64
2022/05/09 00:55:04;;;;;;;9.35;6.68;;;13.90;99.90;;;;;;5093912;28;20023;-64
2022/05/09 00:57:35;;;;;;;;;;;13.90;99.90;;;;;;5094542;28;20016;-64
2022/05/09 01:00:08;;;;;;;12.07;7.60;;;13.90;99.90;;;;;;5093614;28;19904;-66
2022/05/09 01:02:37;;;;;;;10.70;7.32;;;13.80;99.90;;;;;;5093745;28;20085;-66
2022/05/09 01:05:04;;;;;;;8.50;7.05;;;13.90;99.90;;;;;;5093708;28;20469;-65
2022/05/09 01:07:30;;;;;;;9.10;7.18;;;13.80;99.90;;;;;;5093341;28;20093;-65
2022/05/09 01:09:57;;;;;;;11.20;7.88;;;13.80;99.90;;;;;;5093321;28;20029;-65
2022/05/09 01:12:29;;;;;;;13.65;7.88;;;13.70;99.90;;;;;;5093682;28;20035;-65
2022/05/09 01:14:57;;;;;;;12.30;8.43;;;13.60;99.90;;;;;;5094018;28;20028;-64
2022/05/09 01:17:23;;;;;;;8.85;7.43;;;13.60;99.90;;;;;;5093701;28;20427;-64
2022/05/09 01:19:52;;;;;;;11.57;7.90;;;13.60;99.90;;;;;;5094317;28;20028;-65
2022/05/09 01:22:27;;;;;;;9.35;6.88;;;13.60;99.90;;;;;;5093975;28;20027;-64
2022/05/09 01:24:55;;;;;;;9.40;7.95;;;13.60;99.90;;;;;;5093451;28;20048;-64
2022/05/09 01:27:20;;;;;;;10.35;7.22;;;13.50;99.90;;;;;;5093287;28;20028;-64
2022/05/09 01:29:59;;;;;;;9.73;8.00;;;13.50;99.90;;;;;;5093652;28;20024;-66
2022/05/09 01:32:45;;;;;;;12.23;8.80;;;13.50;99.90;;;;;;5093600;28;20027;-65
2022/05/09 01:35:25;;;;;;;12.07;7.97;;;13.40;99.90;;;;;;5082247;28;20040;-65
2022/05/09 01:37:59;;;;;;;9.63;7.78;;;13.40;99.90;;;;;;5093244;28;20026;-64
2022/05/09 01:40:25;;;;;;;11.38;8.18;;;13.40;99.90;;;;;;5094422;28;20023;-65
2022/05/09 01:42:50;;;;;;;11.53;8.17;;;13.40;99.90;;;;;;5094452;28;20103;-65
2022/05/09 01:45:16;;;;;;;10.87;8.27;;;13.40;99.90;;;;;;5093012;28;20031;-64
2022/05/09 01:50:25;;;;;;;9.80;8.40;;;13.30;99.90;;;;;;5093711;28;20063;-64
2022/05/09 01:52:51;;;;;;;11.23;8.13;;;13.20;99.90;;;;;;5093126;28;20060;-64
2022/05/09 01:55:17;;;;;;;9.00;7.82;;;13.20;99.90;;;;;;5094355;28;20048;-64
2022/05/09 01:57:42;;;;;;;10.38;8.68;;;13.10;99.90;;;;;;5097232;28;20411;-65
2022/05/09 02:00:09;;;;;;;11.47;8.50;;;13.10;99.90;;;;;;5097157;28;20063;-64
2022/05/09 02:02:35;;;;;;;11.00;8.63;;;13.00;99.90;;;;;;5097049;28;20032;-64
2022/05/09 02:05:02;;;;;;;12.13;8.60;;;13.00;99.90;;;;;;5096937;28;20027;-64
2022/05/09 02:07:27;;;;;;;10.27;8.30;;;12.90;99.90;;;;;;5096820;28;20138;-64
2022/05/09 02:09:53;;;;;;;10.80;8.20;;;13.00;99.90;;;;;;5097735;28;20059;-64
2022/05/09 02:12:20;;;;;;;12.13;8.65;;;12.90;99.90;;;;;;5097939;28;20024;-64
2022/05/09 02:14:46;;;;;;;;;;;12.90;99.90;;;;;;5097479;28;20102;-65
2022/05/09 02:17:13;;;;;;;10.98;9.15;;;12.80;99.90;;;;;;5096723;28;19904;-64
2022/05/09 02:19:39;;;;;;;;;;;12.80;99.90;;;;;;5097456;28;20039;-65
2022/05/09 02:22:05;;;;;;;10.63;8.15;;;12.70;99.90;;;;;;5097305;28;19946;-65
2022/05/09 02:24:30;;;;;;;10.23;8.27;;;12.70;99.90;;;;;;5097018;28;20060;-65
2022/05/09 02:26:57;;;;;;;11.00;8.10;;;12.70;99.90;;;;;;5079608;28;20020;-64
2022/05/09 02:29:24;;;;;;;12.68;8.30;;;12.70;99.90;;;;;;5079358;28;20036;-65
2022/05/09 02:31:49;;;;;;;12.85;8.00;;;12.70;99.90;;;;;;5097976;28;20050;-65
2022/05/09 02:34:15;;;;;;;10.57;8.63;;;12.70;99.90;;;;;;5098170;28;20032;-65
2022/05/09 02:36:41;;;;;;;10.40;8.90;;;12.70;99.90;;;;;;5097881;28;20020;-65
2022/05/09 02:39:07;;;;;;;10.43;8.05;;;12.60;99.90;;;;;;5098281;28;20330;-65
2022/05/09 02:41:32;;;;;;;9.98;7.97;;;12.60;99.90;;;;;;5097363;28;20027;-65
2022/05/09 02:43:59;;;;;;;10.60;7.97;;;12.60;99.90;;;;;;5097057;28;20020;-65
2022/05/09 02:46:25;;;;;;;10.50;7.90;;;12.60;99.90;;;;;;5097271;28;20487;-64
2022/05/09 02:48:50;;;;;;;12.63;9.20;;;12.60;99.90;;;;;;5096787;28;20062;-64
2022/05/09 02:51:17;;;;;;;9.60;8.07;;;12.60;99.90;;;;;;5097144;28;20028;-64
2022/05/09 02:53:43;;;;;;;10.40;8.57;;;12.60;99.90;;;;;;5097473;28;20278;-65
2022/05/09 02:56:09;;;;;;;12.68;8.18;;;12.60;99.90;;;;;;5096752;28;20035;-65
2022/05/09 02:58:35;;;;;;;8.60;7.80;;;12.60;99.90;;;;;;5095985;28;20529;-65
2022/05/09 03:01:00;;;;;;;;;;;12.60;99.90;;;;;;5078240;28;20117;-65
2022/05/09 03:06:10;;;;;;;10.27;8.85;;;12.50;99.90;;;;;;5095430;28;20034;-64
2022/05/09 03:08:36;;;;;;;14.13;9.07;;;12.40;99.90;;;;;;5094982;28;20016;-65
2022/05/09 03:11:02;;;;;;;11.27;8.40;;;12.40;99.90;;;;;;5095732;28;20027;-65
2022/05/09 03:13:28;;;;;;;9.98;8.35;;;12.40;99.90;;;;;;5095370;28;20024;-64
2022/05/09 03:15:53;;;;;;;11.43;8.47;;;12.30;99.90;;;;;;5095530;28;20027;-64
2022/05/09 03:18:23;;;;;;;12.37;8.93;;;12.40;99.90;;;;;;5077256;28;20258;-64
2022/05/09 03:20:48;;;;;;;12.15;9.30;;;12.40;99.90;;;;;;5095508;28;20016;-64
2022/05/09 03:23:14;;;;;;;11.25;9.15;;;12.30;99.90;;;;;;5095939;28;20201;-65
2022/05/09 03:25:41;;;;;;;12.57;8.98;;;12.30;99.90;;;;;;5095272;28;20475;-65
2022/05/09 03:28:10;;;;;;;11.20;9.02;;;12.30;99.90;;;;;;5094918;28;20138;-65
2022/05/09 03:30:37;;;;;;;12.13;9.13;;;12.30;99.90;;;;;;5095403;28;20391;-65
2022/05/09 03:33:04;;;;;;;11.23;8.35;;;12.20;99.90;;;;;;5095126;28;20028;-65
2022/05/09 03:35:30;;;;;;;;;;;12.20;99.90;;;;;;5095433;28;20032;-64
2022/05/09 03:37:56;;;;;;;11.52;8.95;;;12.20;99.90;;;;;;5094921;28;19907;-65
2022/05/09 03:40:21;;;;;;;13.13;9.77;;;12.10;99.90;;;;;;5095043;28;20035;-64
2022/05/09 03:42:48;;;;;;;12.27;10.10;;;12.10;99.90;;;;;;5095083;28;20061;-64
2022/05/09 03:45:14;;;;;;;13.25;9.80;;;12.00;99.90;;;;;;5095439;28;20020;-64
2022/05/09 03:47:40;;;;;;;13.70;9.70;;;12.10;99.90;;;;;;5095170;28;20480;-65
2022/05/09 03:50:07;;;;;;;13.52;9.20;;;12.10;99.90;;;;;;5095079;28;20032;-65
2022/05/09 03:52:32;;;;;;;12.40;9.88;;;12.10;99.90;;;;;;5076352;28;20067;-64
2022/05/09 03:54:58;;;;;;;14.20;9.53;;;12.00;99.90;;;;;;5094928;28;20036;-64
2022/05/09 03:57:25;;;;;;;17.23;10.47;;;12.00;99.90;;;;;;5094701;28;20024;-65
2022/05/09 03:59:51;;;;;;;11.25;9.27;;;12.00;99.90;;;;;;5076431;28;20112;-64
2022/05/09 04:02:17;;;;;;;13.23;10.63;;;11.90;99.90;;;;;;5094659;28;20095;-64
2022/05/09 04:04:42;;;;;;;13.55;10.60;;;12.00;99.90;;;;;;5094903;28;20532;-64
2022/05/09 04:07:08;;;;;;;14.07;10.93;;;11.90;99.90;;;;;;5094247;28;20126;-64
2022/05/09 04:09:34;;;;;;;12.77;9.23;;;12.00;99.90;;;;;;5094453;28;20028;-65
2022/05/09 04:12:00;;;;;;;12.70;9.65;;;12.10;99.90;;;;;;5094489;28;20163;-65
2022/05/09 04:17:10;;;;;;;12.60;10.02;;;12.00;99.90;;;;;;5094068;28;20043;-65
2022/05/09 04:19:37;;;;;;;12.60;10.30;;;12.00;99.90;;;;;;5094186;28;20024;-65
2022/05/09 04:22:03;;;;;;;;;;;12.00;99.90;;;;;;5094628;28;20028;-65
2022/05/09 04:24:33;;;;;;;16.02;12.05;;;12.00;99.90;;;;;;5094388;28;20245;-66
2022/05/09 04:26:59;;;;;;;13.50;10.95;;;12.00;99.90;;;;;;5093966;28;20047;-65
2022/05/09 04:29:25;;;;;;;;;;;12.00;99.90;;;;;;5095100;28;20461;-65
2022/05/09 04:31:51;;;;;;;17.05;10.93;;;12.00;99.90;;;;;;5094146;28;19993;-65
2022/05/09 04:34:16;;;;;;;17.42;11.48;;;12.00;99.90;;;;;;5094127;28;20032;-65
2022/05/09 04:36:42;;;;;;;15.83;11.00;;;11.90;99.90;;;;;;5094108;28;20036;-65
2022/05/09 04:39:08;;;;;;;16.47;12.40;;;12.00;99.90;;;;;;5093768;28;20077;-65
2022/05/09 04:41:34;;;;;;;14.95;11.75;;;12.00;99.90;;;;;;5093971;28;20032;-64
2022/05/09 04:44:00;;;;;;;16.40;11.60;;;12.00;99.90;;;;;;5094263;28;20024;-64
2022/05/09 04:46:26;;;;;;;14.35;11.48;;;12.00;99.90;;;;;;5097193;28;20024;-64
2022/05/09 04:48:52;;;;;;;17.65;11.75;;;12.00;99.90;;;;;;5094001;28;20078;-64
2022/05/09 04:51:18;;;;;;;14.07;11.63;;;12.00;99.90;;;;;;5094392;28;20063;-64
2022/05/09 04:53:44;;;;;;;14.02;11.75;;;12.00;99.90;;;;;;5075362;28;20278;-64
2022/05/09 04:56:10;;;;;;;13.23;11.07;;;12.00;99.90;;;;;;5093663;28;20024;-64
2022/05/09 04:58:36;;;;;;;14.85;11.13;;;12.10;99.90;;;;;;5093405;28;20024;-64
2022/05/09 05:01:01;;;;;;;15.80;11.60;;;12.10;99.90;;;;;;5093819;28;20065;-64
2022/05/09 05:03:27;;;;;;;16.13;11.73;;;12.10;99.90;;;;;;5093635;28;20028;-64
2022/05/09 05:05:53;;;;;;;14.43;10.88;;;12.20;99.90;;;;;;5093613;28;20270;-64
2022/05/09 05:08:20;;;;;;;16.42;11.07;;;12.20;99.90;;;;;;5093108;28;20101;-64
2022/05/09 05:10:45;;;;;;;13.48;11.43;;;12.20;99.90;;;;;;5093106;28;20027;-64
2022/05/09 05:13:12;;;;;;;14.13;11.57;;;12.30;99.90;;;;;;5093324;28;20066;-64
2022/05/09 05:15:38;;;;;;;;;;;12.30;99.90;;;;;;5093816;28;20258;-64
2022/05/09 05:18:04;;;;;;;16.90;10.45;;;12.40;99.90;;;;;;5093130;28;20261;-64
2022/05/09 05:20:30;;;;;;;13.55;11.27;;;12.50;99.90;;;;;;5093478;28;20349;-64
2022/05/09 05:22:56;;;;;;;12.63;10.80;;;12.60;99.90;;;;;;5093022;28;20177;-63
2022/05/09 05:25:27;;;;;;;14.38;11.80;;;12.70;99.90;;;;;;5093172;28;20110;-64
2022/05/09 05:27:53;;;;;;;13.80;10.23;;;12.70;99.90;;;;;;5093170;28;20564;-64
2022/05/09 05:30:20;;;;;;;16.60;10.18;;;12.80;99.90;;;;;;5093343;28;20341;-62
2022/05/09 05:32:47;;;;;;;14.93;9.75;;;12.90;99.90;;;;;;5074951;28;20031;-63
2022/05/09 05:35:16;;;;;;;12.45;9.63;;;13.00;99.90;;;;;;5092368;28;20393;-64
2022/05/09 05:37:41;;;;;;;12.48;10.15;;;13.10;99.90;;;;;;5092700;28;20030;-64
2022/05/09 05:40:09;;;;;;;12.53;9.90;;;13.10;99.90;;;;;;5092844;28;20566;-64
2022/05/09 05:42:38;;;;;;;13.98;9.75;;;13.20;99.90;;;;;;5092912;28;20031;-64
2022/05/09 05:45:04;;;;;;;12.45;9.48;;;13.20;99.90;;;;;;5092894;28;20417;-64
2022/05/09 05:47:29;;;;;;;13.65;10.02;;;13.30;99.90;;;;;;5092617;28;20100;-64
2022/05/09 05:49:57;;;;;;;14.17;9.80;;;13.40;99.90;;;;;;5093374;28;20469;-64
2022/05/09 05:52:22;;;;;;;14.65;9.60;;;13.50;99.90;;;;;;5092756;28;20027;-64
2022/05/09 05:54:48;;;;;;;11.70;9.53;;;13.60;99.90;;;;;;5092935;28;20016;-64
2022/05/09 05:57:18;;;;;;;13.20;9.30;;;13.70;99.90;;;;;;5092767;28;20096;-64
2022/05/09 06:00:05;;;;;;;12.25;9.63;;;13.80;99.90;;;;;;5092772;28;20401;-64
2022/05/09 06:02:31;;;;;;;13.55;9.27;;;13.90;99.90;;;;;;5092386;28;20028;-63
2022/05/09 06:04:57;;;;;;;12.43;8.68;;;13.90;99.90;;;;;;5091898;28;20031;-63
2022/05/09 06:07:24;;;;;;;12.88;8.95;;;14.10;99.90;;;;;;5092473;28;20493;-65
2022/05/09 06:09:51;;;;;;;12.90;9.27;;;14.10;99.90;;;;;;5092662;28;20024;-65
2022/05/09 06:12:19;;;;;;;9.27;8.27;;;14.10;99.90;;;;;;5092874;28;20020;-65
2022/05/09 06:14:45;;;;;;;10.02;8.80;;;14.20;99.90;;;;;;5092616;28;20389;-63
2022/05/09 06:17:10;;;;;;;11.27;8.77;;;14.30;99.90;;;;;;5092531;28;20024;-64
2022/05/09 06:19:37;;;;;;;9.43;8.25;;;14.40;99.90;;;;;;5092578;28;20092;-64
2022/05/09 06:22:04;;;;;;;12.55;8.77;;;14.50;99.90;;;;;;5092850;28;20555;-64
2022/05/09 06:24:30;;;;;;;;;;;14.50;99.90;;;;;;5093045;28;20034;-66
2022/05/09 06:26:56;;;;;;;11.43;8.85;;;14.60;99.90;;;;;;5092605;28;20020;-66
2022/05/09 06:29:21;;;;;;;12.10;9.05;;;14.70;99.90;;;;;;5074660;28;20396;-67
2022/05/09 06:31:47;;;;;;;14.38;8.55;;;14.80;99.90;;;;;;5092440;28;20107;-67
2022/05/09 06:34:13;;;;;;;13.77;8.87;;;14.90;99.90;;;;;;5092287;28;20114;-66
2022/05/09 06:36:41;;;;;;;12.30;8.75;;;14.90;99.90;;;;;;5092486;28;20069;-66
2022/05/09 06:39:08;;;;;;;12.00;8.38;;;15.00;99.90;;;;;;5092239;28;20032;-63
2022/05/09 06:41:34;;;;;;;10.95;8.52;;;15.10;99.90;;;;;;5092793;28;20417;-65
2022/05/09 06:43:59;;;;;;;12.05;8.43;;;15.10;99.90;;;;;;5096145;28;20077;-65
2022/05/09 06:46:25;;;;;;;10.32;8.23;;;15.30;99.90;;;;;;5096754;28;20420;-65
2022/05/09 06:48:51;;;;;;;10.73;8.05;;;15.30;99.90;;;;;;5099380;28;20032;-65
2022/05/09 06:51:17;;;;;;;9.90;7.40;;;15.40;99.90;;;;;;5079513;28;20493;-65
2022/05/09 06:53:44;;;;;;;11.15;8.70;;;15.50;99.90;;;;;;5097923;28;20523;-65
2022/05/09 06:56:10;;;;;;;11.85;8.35;;;15.60;99.90;;;;;;5096849;28;20035;-65
2022/05/09 06:58:36;;;;;;;;;;;15.70;99.90;;;;;;5096561;28;20024;-65
2022/05/09 07:01:12;;;;;;;9.90;7.78;;;15.80;99.90;;;;;;5096222;28;20335;-65
2022/05/09 07:03:38;;;;;;;13.82;7.85;;;15.80;99.90;;;;;;5095647;28;20028;-65
2022/05/09 07:06:04;;;;;;;10.80;8.27;;;15.90;99.90;;;;;;5095787;28;20034;-65
2022/05/09 07:08:32;;;;;;;14.17;8.10;;;16.00;99.90;;;;;;5095804;28;20024;-65
2022/05/09 07:10:58;;;;;;;11.38;8.27;;;16.10;99.90;;;;;;5095517;28;20265;-64
2022/05/09 07:13:24;;;;;;;12.32;7.57;;;16.20;99.90;;;;;;5095285;28;20020;-65
2022/05/09 07:15:50;;;;;;;14.30;7.82;;;16.30;99.90;;;;;;5095580;28;20067;-65
2022/05/09 07:18:15;;;;;;;11.85;7.82;;;16.50;99.90;;;;;;5077135;28;20043;-65
2022/05/09 07:20:41;;;;;;;9.82;7.03;;;16.50;99.90;;;;;;5095304;28;20366;-64
2022/05/09 07:23:11;;;;;;;11.70;7.00;;;16.50;99.90;;;;;;5095712;28;20516;-65
2022/05/09 07:25:38;;;;;;;10.88;7.07;;;16.70;99.90;;;;;;5095379;28;20606;-65
2022/05/09 07:28:04;;;;;;;9.68;7.30;;;16.80;99.90;;;;;;5095219;28;20028;-65
2022/05/09 07:30:30;;;;;;;;;;;16.80;99.90;;;;;;5095916;28;20020;-65
2022/05/09 07:32:57;;;;;;;10.13;7.78;;;17.00;99.90;;;;;;5095580;28;20022;-65
2022/05/09 07:35:23;;;;;;;8.23;7.40;;;17.10;99.90;;;;;;5095424;28;20051;-65
2022/05/09 07:37:49;;;;;;;;;;;17.10;99.90;;;;;;5095804;28;20446;-65
2022/05/09 07:40:17;;;;;;;12.13;7.47;;;17.10;99.90;;;;;;5095644;28;20353;-64
2022/05/09 07:42:44;;;;;;;8.13;7.05;;;17.20;99.90;;;;;;5095224;28;20035;-65
2022/05/09 07:45:12;;;;;;;8.93;6.47;;;17.40;99.90;;;;;;5095237;28;20039;-65
2022/05/09 07:47:39;;;;;;;10.60;6.72;;;17.50;99.90;;;;;;5095046;28;20115;-65
2022/05/09 07:50:06;;;;;;;10.02;6.30;;;17.60;99.90;;;;;;5094953;28;20020;-65
2022/05/09 07:52:31;;;;;;;10.18;6.43;;;17.70;99.90;;;;;;5094645;28;20059;-66
2022/05/09 07:54:57;;;;;;;10.02;6.85;;;17.80;99.90;;;;;;5094748;28;20056;-66
2022/05/09 07:57:23;;;;;;;10.80;7.35;;;17.90;99.90;;;;;;5095160;28;20111;-65
2022/05/09 07:59:49;;;;;;;10.45;7.45;;;18.00;99.90;;;;;;5095389;28;20031;-66
2022/05/09 08:02:14;;;;;;;9.15;6.75;;;18.20;99.90;;;;;;5095003;28;20588;-65
2022/05/09 08:04:40;;;;;;;14.02;6.40;;;18.40;99.90;;;;;;5094795;28;20084;-65
2022/05/09 08:07:06;;;;;;;10.18;6.07;;;18.50;99.90;;;;;;5094419;28;20028;-65
2022/05/09 08:09:32;;;;;;;11.25;6.53;;;18.60;99.90;;;;;;5094941;28;20020;-66
2022/05/09 08:11:58;;;;;;;7.35;5.97;;;18.80;99.90;;;;;;5094746;28;20020;-66
2022/05/09 08:14:25;;;;;;;;;;;18.90;99.90;;;;;;5095098;28;20488;-66
2022/05/09 08:16:51;;;;;;;8.65;5.70;;;19.20;99.90;;;;;;5076516;28;20250;-65
2022/05/09 08:19:17;;;;;;;;;;;19.60;99.90;;;;;;5095166;28;20545;-66
2022/05/09 08:21:47;;;;;;;8.50;5.47;;;21.10;99.90;;;;;;5095128;28;19926;-65
2022/05/09 08:24:12;;;;;;;10.73;4.97;;;22.70;99.30;;;;;;5095111;28;20473;-66
2022/05/09 08:26:38;;;;;;;;;;;23.80;97.20;;;;;;5095397;28;20024;-66
2022/05/09 08:29:04;;;;;;;5.72;5.13;;;25.20;94.80;;;;;;5076247;28;19912;-65
2022/05/09 08:31:30;;;;;;;6.45;5.35;;;25.40;92.40;;;;;;5093978;28;20024;-65
2022/05/09 08:33:57;;;;;;;10.93;5.03;;;26.60;90.80;;;;;;5094492;28;20526;-65
2022/05/09 08:39:08;;;;;;;7.80;4.80;;;28.70;82.70;;;;;;5093922;28;20106;-65
2022/05/09 08:42:00;;;;;;;6.25;4.30;;;28.30;81.50;;;;;;5094210;28;20028;-66
2022/05/09 08:44:57;;;;;;;6.68;4.50;;;27.60;80.50;;;;;;5093930;28;20043;-66
2022/05/09 08:47:25;;;;;;;7.00;4.32;;;27.70;81.50;;;;;;5093818;28;20023;-65
2022/05/09 08:50:05;;;;;;;6.43;3.90;;;29.10;78.70;;;;;;5094285;28;20062;-66
2022/05/09 08:52:42;;;;;;;7.65;4.63;;;30.10;76.60;;;;;;5094159;28;20073;-66
2022/05/09 08:55:09;;;;;;;9.38;4.60;;;30.90;73.60;;;;;;5097590;28;20020;-66
2022/05/09 08:58:05;;;;;;;7.18;4.65;;;31.60;70.80;;;;;;5094965;28;20366;-65
2022/05/09 09:00:31;;;;;;;7.07;4.57;;;31.60;68.50;;;;;;5083278;28;20159;-67
2022/05/09 09:03:01;;;;;;;7.47;5.43;;;30.20;70.00;;;;;;5093658;28;20024;-66
2022/05/09 09:05:32;;;;;;;5.82;4.60;;;30.10;70.10;;;;;;5092897;28;20087;-66
2022/05/09 09:08:12;;;;;;;5.93;4.05;;;30.50;70.10;;;;;;5093787;28;20024;-67
2022/05/09 09:10:52;;;;;;;5.38;3.95;;;31.90;67.70;;;;;;5093495;28;20529;-66
2022/05/09 09:13:51;;;;;;;6.35;4.30;;;32.80;65.70;;;;;;5093578;28;20072;-66
2022/05/09 09:16:23;;;;;;;4.22;3.80;;;33.60;63.90;;;;;;5093454;28;20544;-66
2022/05/09 09:18:58;;;;;;;6.15;4.20;;;33.70;61.80;;;;;;5093181;28;20028;-66
2022/05/09 09:21:36;;;;;;;5.45;4.03;;;33.80;61.80;;;;;;5093327;28;20066;-66
2022/05/09 09:24:05;;;;;;;6.65;3.35;;;32.60;62.00;;;;;;5093396;28;20047;-66
2022/05/09 09:27:02;;;;;;;4.65;3.90;;;33.40;62.30;;;;;;5092988;28;20020;-66
2022/05/09 09:29:33;;;;;;;5.85;4.00;;;33.10;60.60;;;;;;5092971;28;20038;-66
2022/05/09 09:32:20;;;;;;;6.38;4.18;;;32.30;61.90;;;;;;5093401;28;20047;-66
2022/05/09 09:35:06;;;;;;;5.53;4.15;;;32.90;61.80;;;;;;5093244;28;20021;-66
2022/05/09 09:37:55;;;;;;;4.28;3.88;;;32.80;60.30;;;;;;5093026;28;20027;-66
2022/05/09 09:40:21;;;;;;;7.10;4.50;;;30.80;62.70;;;;;;5093036;28;20023;-66
2022/05/09 09:42:52;;;;;;;4.60;3.83;;;30.90;63.70;;;;;;5093530;28;20024;-66
2022/05/09 09:45:38;;;;;;;8.52;5.18;;;31.80;63.20;;;;;;5093174;28;20055;-66
2022/05/09 09:48:11;;;;;;;;;;;32.20;60.70;;;;;;5093695;28;20059;-66
2022/05/09 09:50:50;;;;;;;8.15;4.35;;;31.90;61.50;;;;;;5092884;28;19927;-66
2022/05/09 09:53:32;;;;;;;6.45;3.88;;;32.20;61.40;;;;;;5093367;28;20032;-66
2022/05/09 09:56:22;;;;;;;5.30;4.05;;;32.90;60.00;;;;;;5093299;28;20012;-66
2022/05/09 09:58:55;;;;;;;4.60;4.20;;;32.10;61.00;;;;;;5084425;28;20439;-66
2022/05/09 10:01:27;;;;;;;6.35;3.80;;;31.90;60.70;;;;;;5093126;28;20032;-66
2022/05/09 10:04:14;;;;;;;5.15;3.90;;;32.90;61.10;;;;;;5092766;28;20334;-66
2022/05/09 10:07:03;;;;;;;4.80;3.92;;;33.40;59.10;;;;;;5092651;28;20028;-66
2022/05/09 10:09:40;;;;;;;4.40;3.80;;;32.80;60.10;;;;;;5092680;28;20036;-66
2022/05/09 10:12:21;;;;;;;6.53;3.50;;;33.00;59.60;;;;;;5092695;28;20047;-66
2022/05/09 10:14:48;;;;;;;4.72;4.05;;;32.80;60.20;;;;;;5092430;28;20430;-66
2022/05/09 10:17:16;;;;;;;4.82;4.15;;;31.50;60.60;;;;;;5095627;28;20055;-66
2022/05/09 10:19:42;;;;;;;6.85;3.83;;;31.20;61.20;;;;;;5097119;28;20024;-66
2022/05/09 10:25:28;;;;;;;6.55;3.92;;;32.30;60.40;;;;;;5097090;28;20043;-66
2022/05/09 10:28:10;;;;;;;5.82;3.90;;;33.80;58.20;;;;;;5094310;28;20047;-66
2022/05/09 10:30:40;;;;;;;4.28;3.60;;;34.70;56.80;;;;;;5096382;28;20036;-66
2022/05/09 10:33:24;;;;;;;4.88;3.58;;;34.70;56.90;;;;;;5096448;28;20036;-66
2022/05/09 10:35:53;;;;;;;8.70;4.28;;;33.90;57.10;;;;;;5096463;28;20525;-66
2022/05/09 10:38:28;;;;;;;5.68;4.25;;;32.20;58.80;;;;;;5096060;28;20425;-66
2022/05/09 10:41:03;;;;;;;5.63;3.83;;;31.60;59.40;;;;;;5096436;28;20134;-66
2022/05/09 10:43:59;;;;;;;7.65;4.15;;;32.50;58.90;;;;;;5096183;28;20035;-66
2022/05/09 10:46:52;;;;;;;6.93;3.78;;;34.30;57.40;;;;;;5095133;28;20408;-66
2022/05/09 10:49:32;;;;;;;7.68;3.95;;;35.10;55.70;;;;;;5089086;28;20067;-67
2022/05/09 10:52:13;;;;;;;4.43;4.00;;;32.90;57.40;;;;;;5095644;28;20039;-66
2022/05/09 10:54:49;;;;;;;4.57;3.83;;;31.80;58.40;;;;;;5095448;28;20027;-66
2022/05/09 10:57:15;;;;;;;5.72;3.97;;;31.10;59.20;;;;;;5095615;28;20035;-66
2022/05/09 10:59:42;;;;;;;4.68;3.63;;;30.90;60.10;;;;;;5077374;28;20028;-66
2022/05/09 11:02:31;;;;;;;7.63;4.35;;;30.30;61.90;;;;;;5095539;28;20085;-65
2022/05/09 11:04:56;;;;;;;6.20;4.10;;;29.40;61.80;;;;;;5098161;28;20028;-66
2022/05/09 11:07:35;;;;;;;5.05;4.00;;;27.90;64.60;;;;;;5081195;28;20117;-65
2022/05/09 11:10:26;;;;;;;7.95;4.32;;;27.40;66.20;;;;;;5096401;28;20016;-66
2022/05/09 11:13:06;;;;;;;11.02;4.25;;;26.30;67.00;;;;;;5095395;28;20388;-65
2022/05/09 11:15:58;;;;;;;10.07;4.53;;;25.50;68.90;;;;;;5095531;28;20043;-65
2022/05/09 11:18:32;;;;;;;10.95;4.63;;;25.10;71.20;;;;;;5092180;28;20032;-66
2022/05/09 11:21:16;;;;;;;6.28;4.55;;;25.10;70.70;;;;;;5095483;28;20023;-66
2022/05/09 11:24:04;;;;;;;6.32;4.55;;;25.10;70.90;;;;;;5095453;28;20024;-66
2022/05/09 11:26:54;;;;;;;7.25;4.05;;;24.90;72.10;;;;;;5095065;28;20385;-65
2022/05/09 11:29:57;;;;;;;9.35;4.53;;;24.40;71.40;;;;;;5094015;28;20040;-65
2022/05/09 11:32:36;;;;;;;7.07;4.50;;;24.20;73.00;;;;;;5082039;28;20036;-67
2022/05/09 11:35:33;;;;;;;5.85;4.28;;;23.90;74.10;;;;;;5095643;28;20024;-66
2022/05/09 11:38:09;;;;;;;5.55;4.35;;;24.00;73.90;;;;;;5077398;28;20024;-66
2022/05/09 11:40:55;;;;;;;4.72;4.15;;;24.10;73.50;;;;;;5095163;28;20105;-66
2022/05/09 11:43:50;;;;;;;6.50;4.75;;;24.20;73.80;;;;;;5095568;28;20341;-66
2022/05/09 11:46:34;;;;;;;5.75;4.63;;;24.30;73.50;;;;;;5095290;28;20115;-65
2022/05/09 11:49:11;;;;;;;4.93;4.45;;;24.10;72.80;;;;;;5076987;28;20027;-65
2022/05/09 11:51:47;;;;;;;5.85;4.70;;;23.90;74.10;;;;;;5095297;28;20048;-66
2022/05/09 11:54:23;;;;;;;12.07;5.57;;;23.90;74.40;;;;;;5094886;28;20020;-66
2022/05/09 11:57:00;;;;;;;6.25;4.70;;;24.20;74.10;;;;;;5095145;28;20048;-67
2022/05/09 11:59:30;;;;;;;7.38;4.47;;;24.00;74.80;;;;;;5094915;28;20463;-66
2022/05/09 12:02:04;;;;;;;7.90;5.53;;;23.90;74.70;;;;;;5094819;28;20053;-67
2022/05/09 12:04:40;;;;;;;5.55;4.63;;;23.80;75.00;;;;;;5094533;28;20024;-66
2022/05/09 12:07:21;;;;;;;7.03;5.30;;;23.80;75.60;;;;;;5076994;28;20024;-66
2022/05/09 12:09:55;;;;;;;5.28;4.32;;;24.00;75.40;;;;;;5094507;28;20024;-65
2022/05/09 12:12:41;;;;;;;9.30;4.22;;;24.20;75.00;;;;;;5094747;28;20403;-66
2022/05/09 12:15:31;;;;;;;7.85;4.82;;;24.20;75.20;;;;;;5094495;28;20028;-66
2022/05/09 12:18:04;;;;;;;7.70;5.00;;;24.20;74.70;;;;;;5094142;28;20038;-66
2022/05/09 12:20:29;;;;;;;4.78;4.28;;;24.00;74.10;;;;;;5094455;28;20099;-66
2022/05/09 12:23:39;;;;;;;6.20;4.47;;;24.00;73.60;;;;;;5094347;28;20047;-65
2022/05/09 12:26:06;;;;;;;6.18;4.63;;;24.00;73.90;;;;;;5078527;28;20110;-67
2022/05/09 12:28:39;;;;;;;5.97;4.88;;;24.10;75.10;;;;;;5094590;28;20043;-65
2022/05/09 12:31:27;;;;;;;9.77;4.97;;;24.10;74.90;;;;;;5094057;28;20032;-65
2022/05/09 12:33:54;;;;;;;8.95;5.55;;;24.10;75.00;;;;;;5094806;28;20469;-66
2022/05/09 12:36:31;;;;;;;7.65;4.68;;;24.10;75.40;;;;;;5094601;28;20388;-65
2022/05/09 12:39:33;;;;;;;5.93;4.78;;;24.20;75.50;;;;;;5093993;28;20028;-65
2022/05/09 12:42:11;;;;;;;7.53;4.63;;;24.20;76.00;;;;;;5094196;28;20020;-64
2022/05/09 12:44:45;;;;;;;6.45;4.70;;;24.20;75.20;;;;;;5075903;28;20031;-64
2022/05/09 12:47:29;;;;;;;8.68;4.82;;;24.00;75.00;;;;;;5093854;28;20077;-65
2022/05/09 12:50:29;;;;;;;8.23;4.13;;;24.00;75.00;;;;;;5094120;28;20473;-66
2022/05/09 12:53:01;;;;;;;4.90;4.40;;;24.00;74.80;;;;;;5090879;28;20044;-65
2022/05/09 12:58:32;;;;;;;6.35;4.50;;;24.30;74.90;;;;;;5094199;28;20029;-66
2022/05/09 13:01:03;;;;;;;5.38;4.78;;;24.40;74.40;;;;;;5093955;28;20068;-66
2022/05/09 13:03:28;;;;;;;6.25;4.57;;;24.40;74.80;;;;;;5075604;28;20034;-67
2022/05/09 13:05:54;;;;;;;5.03;4.45;;;24.20;74.50;;;;;;5093391;28;20098;-66
2022/05/09 13:08:19;;;;;;;5.38;4.22;;;24.10;75.10;;;;;;5093451;28;20476;-66
2022/05/09 13:10:47;;;;;;;;;;;23.90;74.80;;;;;;5075543;28;20119;-65
2022/05/09 13:13:31;;;;;;;5.43;4.40;;;23.90;75.50;;;;;;5093453;28;19958;-66
2022/05/09 13:15:58;;;;;;;6.10;4.43;;;24.00;75.40;;;;;;5093248;28;20023;-66
2022/05/09 13:18:28;;;;;;;6.50;4.45;;;24.20;74.50;;;;;;5092883;28;20059;-67
2022/05/09 13:20:58;;;;;;;9.43;4.53;;;24.20;75.00;;;;;;5093489;28;20392;-67